This is the latest recevied weather packets stored in our database for station/object OE9GTV. If no packets are shown the sender has not sent any weather packets the latest 10 day(s).
| Time | Temp. | Humidity | Pressure | Rain* | Wind** | Luminosity | Snow |
|---|---|---|---|---|---|---|---|
| 1777840276 | 17.78° C | 53% | 1011.2 hPa | 0 mm | - | 0 W/m² | - |
| 1777839676 | 18.33° C | 53% | 1011.2 hPa | 0 mm | - | 0 W/m² | - |
| 1777838476 | 18.33° C | 52% | 1011 hPa | 0 mm | - | 0 W/m² | - |
| 1777836076 | 18.89° C | 50% | 1010.5 hPa | 0 mm | - | 0 W/m² | - |
| 1777835476 | 18.89° C | 49% | 1010.3 hPa | 0 mm | - | 0 W/m² | - |
| 1777834875 | 18.89° C | 50% | 1010.1 hPa | 0 mm | - | 0 W/m² | - |
| 1777833675 | 19.44° C | 50% | 1010 hPa | 0 mm | - | 0 W/m² | - |
| 1777832475 | 20.56° C | 49% | 1009.8 hPa | 0 mm | - | 0 W/m² | - |
| 1777831275 | 21.67° C | 45% | 1009.5 hPa | 0 mm | - | 0 W/m² | - |
| 1777828875 | 23.33° C | 41% | 1009.3 hPa | 0 mm | - | 0 W/m² | - |
| 1777828275 | 23.33° C | 40% | 1009.2 hPa | 0 mm | - | 0 W/m² | - |
| 1777827675 | 23.33° C | 39% | 1009.2 hPa | 0 mm | - | 0 W/m² | - |
| 1777827074 | 23.89° C | 38% | 1009.1 hPa | 0 mm | - | 0 W/m² | - |
| 1777823475 | 25.56° C | 35% | 1008.8 hPa | 0 mm | - | 0 W/m² | - |
| 1777821674 | 24.44° C | 37% | 1008.7 hPa | 0 mm | - | 0 W/m² | - |
| 1777821074 | 25° C | 37% | 1008.7 hPa | 0 mm | - | 0 W/m² | - |
| 1777820473 | 25° C | 38% | 1008.7 hPa | 0 mm | - | 0 W/m² | - |
| 1777814473 | 24.44° C | 38% | 1009.4 hPa | 0 mm | - | 0 W/m² | - |
| 1777813273 | 24.44° C | 38% | 1009.8 hPa | 0 mm | - | 0 W/m² | - |
| 1777811473 | 25° C | 37% | 1009.9 hPa | 0 mm | - | 0 W/m² | - |
| 1777810873 | 24.44° C | 38% | 1010.1 hPa | 0 mm | - | 0 W/m² | - |
| 1777809673 | 23.89° C | 40% | 1010.2 hPa | 0 mm | - | 0 W/m² | - |
| 1777809073 | 23.33° C | 39% | 1010.4 hPa | 0 mm | - | 0 W/m² | - |
| 1777806072 | 22.78° C | 42% | 1010.8 hPa | 0 mm | - | 0 W/m² | - |
| 1777803072 | 22.78° C | 41% | 1011.3 hPa | 0 mm | - | 0 W/m² | - |
* Rain latest hour (hover to see other rain measurements)
** Current wind speed in m/s (hover to see current wind gust speed)